sensor_id;sensor_type;location;lat;lon;timestamp;P1;durP1;ratioP1;P2;durP2;ratioP2
10170;SDS011;5127;50.922;6.988;2022-07-29T00:01:48;1.35;;;1.00;;
10170;SDS011;5127;50.922;6.988;2022-07-29T00:04:17;1.77;;;1.00;;
10170;SDS011;5127;50.922;6.988;2022-07-29T00:06:45;2.60;;;0.90;;
10170;SDS011;5127;50.922;6.988;2022-07-29T00:09:12;2.80;;;0.98;;
10170;SDS011;5127;50.922;6.988;2022-07-29T00:11:41;1.40;;;1.08;;
10170;SDS011;5127;50.922;6.988;2022-07-29T00:14:08;1.73;;;1.17;;
10170;SDS011;5127;50.922;6.988;2022-07-29T00:16:36;2.55;;;0.95;;
10170;SDS011;5127;50.922;6.988;2022-07-29T00:19:03;2.60;;;1.20;;
10170;SDS011;5127;50.922;6.988;2022-07-29T00:21:30;1.67;;;1.10;;
10170;SDS011;5127;50.922;6.988;2022-07-29T00:23:58;3.13;;;1.10;;
10170;SDS011;5127;50.922;6.988;2022-07-29T00:26:25;2.03;;;1.10;;
10170;SDS011;5127;50.922;6.988;2022-07-29T00:28:58;3.33;;;1.20;;
10170;SDS011;5127;50.922;6.988;2022-07-29T00:31:26;2.28;;;1.10;;
10170;SDS011;5127;50.922;6.988;2022-07-29T00:33:53;2.88;;;1.17;;
10170;SDS011;5127;50.922;6.988;2022-07-29T00:36:20;1.63;;;1.02;;
10170;SDS011;5127;50.922;6.988;2022-07-29T00:38:47;2.22;;;1.15;;
10170;SDS011;5127;50.922;6.988;2022-07-29T00:41:14;1.35;;;1.00;;
10170;SDS011;5127;50.922;6.988;2022-07-29T00:43:42;3.13;;;0.80;;
10170;SDS011;5127;50.922;6.988;2022-07-29T00:46:11;1.73;;;1.10;;
10170;SDS011;5127;50.922;6.988;2022-07-29T00:48:38;1.13;;;1.05;;
10170;SDS011;5127;50.922;6.988;2022-07-29T00:51:05;2.88;;;1.10;;
10170;SDS011;5127;50.922;6.988;2022-07-29T00:53:35;1.85;;;0.93;;
10170;SDS011;5127;50.922;6.988;2022-07-29T00:56:03;2.28;;;1.20;;
10170;SDS011;5127;50.922;6.988;2022-07-29T00:58:30;1.73;;;1.13;;
10170;SDS011;5127;50.922;6.988;2022-07-29T01:00:58;1.98;;;1.10;;
10170;SDS011;5127;50.922;6.988;2022-07-29T01:03:26;2.42;;;0.93;;
10170;SDS011;5127;50.922;6.988;2022-07-29T01:05:54;1.30;;;1.00;;
10170;SDS011;5127;50.922;6.988;2022-07-29T01:08:21;1.98;;;1.00;;
10170;SDS011;5127;50.922;6.988;2022-07-29T01:10:49;3.22;;;1.08;;
10170;SDS011;5127;50.922;6.988;2022-07-29T01:13:18;1.23;;;0.80;;
10170;SDS011;5127;50.922;6.988;2022-07-29T01:15:49;1.20;;;1.00;;
10170;SDS011;5127;50.922;6.988;2022-07-29T01:18:22;1.58;;;1.10;;
10170;SDS011;5127;50.922;6.988;2022-07-29T01:21:01;2.75;;;1.23;;
10170;SDS011;5127;50.922;6.988;2022-07-29T01:27:38;3.08;;;1.58;;
10170;SDS011;5127;50.922;6.988;2022-07-29T01:30:14;1.42;;;1.08;;
10170;SDS011;5127;50.922;6.988;2022-07-29T01:32:42;2.88;;;1.10;;
10170;SDS011;5127;50.922;6.988;2022-07-29T01:35:17;2.20;;;1.20;;
10170;SDS011;5127;50.922;6.988;2022-07-29T01:37:48;2.35;;;1.20;;
10170;SDS011;5127;50.922;6.988;2022-07-29T01:40:22;5.03;;;1.20;;
10170;SDS011;5127;50.922;6.988;2022-07-29T01:42:54;1.85;;;1.08;;
10170;SDS011;5127;50.922;6.988;2022-07-29T01:45:26;2.25;;;1.17;;
10170;SDS011;5127;50.922;6.988;2022-07-29T01:47:58;3.03;;;1.27;;
10170;SDS011;5127;50.922;6.988;2022-07-29T01:50:31;1.30;;;1.20;;
10170;SDS011;5127;50.922;6.988;2022-07-29T01:53:02;2.63;;;1.30;;
10170;SDS011;5127;50.922;6.988;2022-07-29T01:55:33;1.77;;;1.25;;
10170;SDS011;5127;50.922;6.988;2022-07-29T01:58:03;1.98;;;1.30;;
10170;SDS011;5127;50.922;6.988;2022-07-29T02:00:33;1.92;;;1.63;;
10170;SDS011;5127;50.922;6.988;2022-07-29T02:03:02;2.03;;;1.50;;
10170;SDS011;5127;50.922;6.988;2022-07-29T02:05:32;2.50;;;1.63;;
10170;SDS011;5127;50.922;6.988;2022-07-29T02:08:02;1.55;;;1.45;;
10170;SDS011;5127;50.922;6.988;2022-07-29T02:10:31;2.28;;;1.38;;
10170;SDS011;5127;50.922;6.988;2022-07-29T02:13:00;2.33;;;1.52;;
10170;SDS011;5127;50.922;6.988;2022-07-29T02:15:30;2.60;;;1.55;;
10170;SDS011;5127;50.922;6.988;2022-07-29T02:18:01;1.52;;;1.30;;
10170;SDS011;5127;50.922;6.988;2022-07-29T02:20:31;1.25;;;1.15;;
10170;SDS011;5127;50.922;6.988;2022-07-29T02:22:59;2.25;;;1.60;;
10170;SDS011;5127;50.922;6.988;2022-07-29T02:25:28;2.15;;;1.25;;
10170;SDS011;5127;50.922;6.988;2022-07-29T02:27:56;3.33;;;1.48;;
10170;SDS011;5127;50.922;6.988;2022-07-29T02:30:26;2.15;;;1.48;;
10170;SDS011;5127;50.922;6.988;2022-07-29T02:32:56;1.45;;;1.10;;
10170;SDS011;5127;50.922;6.988;2022-07-29T02:35:25;2.17;;;1.23;;
10170;SDS011;5127;50.922;6.988;2022-07-29T02:37:53;1.48;;;1.27;;
10170;SDS011;5127;50.922;6.988;2022-07-29T02:40:38;5.10;;;1.77;;
10170;SDS011;5127;50.922;6.988;2022-07-29T02:43:08;2.85;;;1.35;;
10170;SDS011;5127;50.922;6.988;2022-07-29T02:45:37;2.20;;;1.30;;
10170;SDS011;5127;50.922;6.988;2022-07-29T02:48:08;1.23;;;1.10;;
10170;SDS011;5127;50.922;6.988;2022-07-29T02:50:40;1.65;;;1.30;;
10170;SDS011;5127;50.922;6.988;2022-07-29T02:53:12;1.90;;;1.13;;
10170;SDS011;5127;50.922;6.988;2022-07-29T02:55:45;1.58;;;1.30;;
10170;SDS011;5127;50.922;6.988;2022-07-29T02:58:19;1.77;;;1.30;;
10170;SDS011;5127;50.922;6.988;2022-07-29T03:00:53;1.48;;;1.38;;
10170;SDS011;5127;50.922;6.988;2022-07-29T03:03:25;1.55;;;1.30;;
10170;SDS011;5127;50.922;6.988;2022-07-29T03:05:56;1.45;;;1.15;;
10170;SDS011;5127;50.922;6.988;2022-07-29T03:08:26;2.03;;;1.50;;
10170;SDS011;5127;50.922;6.988;2022-07-29T03:10:54;1.85;;;1.38;;
10170;SDS011;5127;50.922;6.988;2022-07-29T03:13:22;1.70;;;1.40;;
10170;SDS011;5127;50.922;6.988;2022-07-29T03:15:51;3.10;;;1.35;;
10170;SDS011;5127;50.922;6.988;2022-07-29T03:18:19;1.98;;;1.55;;
10170;SDS011;5127;50.922;6.988;2022-07-29T03:20:48;1.50;;;1.27;;
10170;SDS011;5127;50.922;6.988;2022-07-29T03:23:18;1.52;;;1.40;;
10170;SDS011;5127;50.922;6.988;2022-07-29T03:25:46;2.15;;;1.40;;
10170;SDS011;5127;50.922;6.988;2022-07-29T03:28:13;1.60;;;1.50;;
10170;SDS011;5127;50.922;6.988;2022-07-29T03:30:40;1.55;;;1.20;;
10170;SDS011;5127;50.922;6.988;2022-07-29T03:33:08;2.50;;;1.40;;
10170;SDS011;5127;50.922;6.988;2022-07-29T03:35:35;1.98;;;1.30;;
10170;SDS011;5127;50.922;6.988;2022-07-29T03:38:04;2.40;;;1.40;;
10170;SDS011;5127;50.922;6.988;2022-07-29T03:40:32;3.42;;;1.15;;
10170;SDS011;5127;50.922;6.988;2022-07-29T03:43:02;1.70;;;1.00;;
10170;SDS011;5127;50.922;6.988;2022-07-29T03:45:32;2.05;;;1.30;;
10170;SDS011;5127;50.922;6.988;2022-07-29T03:48:01;1.13;;;0.95;;
10170;SDS011;5127;50.922;6.988;2022-07-29T03:50:36;1.90;;;1.20;;
10170;SDS011;5127;50.922;6.988;2022-07-29T03:53:05;2.38;;;1.10;;
10170;SDS011;5127;50.922;6.988;2022-07-29T03:55:33;1.73;;;1.30;;
10170;SDS011;5127;50.922;6.988;2022-07-29T03:58:06;1.85;;;1.10;;
10170;SDS011;5127;50.922;6.988;2022-07-29T04:00:34;2.00;;;1.30;;
10170;SDS011;5127;50.922;6.988;2022-07-29T04:03:03;2.00;;;1.05;;
10170;SDS011;5127;50.922;6.988;2022-07-29T04:05:31;4.03;;;1.40;;
10170;SDS011;5127;50.922;6.988;2022-07-29T04:07:58;2.28;;;1.30;;
10170;SDS011;5127;50.922;6.988;2022-07-29T04:10:26;5.18;;;1.35;;
10170;SDS011;5127;50.922;6.988;2022-07-29T04:12:54;2.95;;;1.27;;
10170;SDS011;5127;50.922;6.988;2022-07-29T04:15:21;4.03;;;1.77;;
10170;SDS011;5127;50.922;6.988;2022-07-29T04:17:48;3.08;;;1.27;;
10170;SDS011;5127;50.922;6.988;2022-07-29T04:20:15;2.15;;;1.50;;
10170;SDS011;5127;50.922;6.988;2022-07-29T04:22:43;2.33;;;1.52;;
10170;SDS011;5127;50.922;6.988;2022-07-29T04:25:11;1.83;;;1.50;;
10170;SDS011;5127;50.922;6.988;2022-07-29T04:27:39;4.53;;;1.80;;
10170;SDS011;5127;50.922;6.988;2022-07-29T04:30:25;1.67;;;1.30;;
10170;SDS011;5127;50.922;6.988;2022-07-29T04:32:53;3.10;;;1.55;;
10170;SDS011;5127;50.922;6.988;2022-07-29T04:35:20;1.77;;;1.30;;
10170;SDS011;5127;50.922;6.988;2022-07-29T04:37:47;2.35;;;1.50;;
10170;SDS011;5127;50.922;6.988;2022-07-29T04:40:15;2.85;;;1.38;;
10170;SDS011;5127;50.922;6.988;2022-07-29T04:42:43;3.92;;;1.67;;
10170;SDS011;5127;50.922;6.988;2022-07-29T04:45:11;3.17;;;1.48;;
10170;SDS011;5127;50.922;6.988;2022-07-29T04:47:38;2.08;;;1.20;;
10170;SDS011;5127;50.922;6.988;2022-07-29T04:50:06;2.92;;;1.70;;
10170;SDS011;5127;50.922;6.988;2022-07-29T04:52:34;3.85;;;1.42;;
10170;SDS011;5127;50.922;6.988;2022-07-29T04:55:02;4.28;;;1.48;;
10170;SDS011;5127;50.922;6.988;2022-07-29T04:57:30;4.68;;;1.52;;
10170;SDS011;5127;50.922;6.988;2022-07-29T04:59:58;2.33;;;1.35;;
10170;SDS011;5127;50.922;6.988;2022-07-29T05:02:26;2.90;;;1.70;;
10170;SDS011;5127;50.922;6.988;2022-07-29T05:04:53;3.60;;;1.50;;
10170;SDS011;5127;50.922;6.988;2022-07-29T05:07:20;2.72;;;1.50;;
10170;SDS011;5127;50.922;6.988;2022-07-29T05:09:47;4.22;;;1.50;;
10170;SDS011;5127;50.922;6.988;2022-07-29T05:12:15;2.40;;;1.50;;
10170;SDS011;5127;50.922;6.988;2022-07-29T05:14:42;3.30;;;1.42;;
10170;SDS011;5127;50.922;6.988;2022-07-29T05:17:11;4.22;;;1.33;;
10170;SDS011;5127;50.922;6.988;2022-07-29T05:19:38;1.77;;;1.13;;
10170;SDS011;5127;50.922;6.988;2022-07-29T05:22:05;3.25;;;1.30;;
10170;SDS011;5127;50.922;6.988;2022-07-29T05:24:33;1.95;;;1.20;;
10170;SDS011;5127;50.922;6.988;2022-07-29T05:27:00;2.25;;;1.40;;
10170;SDS011;5127;50.922;6.988;2022-07-29T05:29:27;1.88;;;1.23;;
10170;SDS011;5127;50.922;6.988;2022-07-29T05:31:54;2.05;;;1.30;;
10170;SDS011;5127;50.922;6.988;2022-07-29T05:34:23;2.70;;;1.25;;
10170;SDS011;5127;50.922;6.988;2022-07-29T05:36:50;2.75;;;1.40;;
10170;SDS011;5127;50.922;6.988;2022-07-29T05:39:17;3.15;;;1.38;;
10170;SDS011;5127;50.922;6.988;2022-07-29T05:41:45;4.43;;;1.30;;
10170;SDS011;5127;50.922;6.988;2022-07-29T05:44:13;4.78;;;1.23;;
10170;SDS011;5127;50.922;6.988;2022-07-29T05:46:41;2.92;;;1.40;;
10170;SDS011;5127;50.922;6.988;2022-07-29T05:49:08;2.17;;;1.50;;
10170;SDS011;5127;50.922;6.988;2022-07-29T05:51:36;2.17;;;1.40;;
10170;SDS011;5127;50.922;6.988;2022-07-29T05:54:04;1.85;;;1.17;;
10170;SDS011;5127;50.922;6.988;2022-07-29T05:56:31;3.40;;;1.00;;
10170;SDS011;5127;50.922;6.988;2022-07-29T05:58:59;2.72;;;1.30;;
10170;SDS011;5127;50.922;6.988;2022-07-29T06:01:26;2.13;;;1.30;;
10170;SDS011;5127;50.922;6.988;2022-07-29T06:03:53;4.22;;;1.20;;
10170;SDS011;5127;50.922;6.988;2022-07-29T06:06:20;3.08;;;1.25;;
10170;SDS011;5127;50.922;6.988;2022-07-29T06:08:49;7.40;;;1.70;;
10170;SDS011;5127;50.922;6.988;2022-07-29T06:11:17;5.97;;;1.50;;
10170;SDS011;5127;50.922;6.988;2022-07-29T06:13:44;13.90;;;2.00;;
10170;SDS011;5127;50.922;6.988;2022-07-29T06:16:11;2.45;;;1.33;;
10170;SDS011;5127;50.922;6.988;2022-07-29T06:18:38;4.72;;;1.63;;
10170;SDS011;5127;50.922;6.988;2022-07-29T06:21:07;3.75;;;1.60;;
10170;SDS011;5127;50.922;6.988;2022-07-29T06:23:35;7.97;;;1.60;;
10170;SDS011;5127;50.922;6.988;2022-07-29T06:26:04;9.77;;;2.10;;
10170;SDS011;5127;50.922;6.988;2022-07-29T06:28:32;3.40;;;1.60;;
10170;SDS011;5127;50.922;6.988;2022-07-29T06:30:59;4.38;;;1.42;;
10170;SDS011;5127;50.922;6.988;2022-07-29T06:33:27;4.35;;;1.73;;
10170;SDS011;5127;50.922;6.988;2022-07-29T06:35:54;4.65;;;1.83;;
10170;SDS011;5127;50.922;6.988;2022-07-29T06:38:21;11.50;;;2.13;;
10170;SDS011;5127;50.922;6.988;2022-07-29T06:40:49;8.23;;;2.00;;
10170;SDS011;5127;50.922;6.988;2022-07-29T06:43:38;4.43;;;1.60;;
10170;SDS011;5127;50.922;6.988;2022-07-29T06:46:08;4.15;;;1.70;;
10170;SDS011;5127;50.922;6.988;2022-07-29T06:48:37;2.13;;;1.45;;
10170;SDS011;5127;50.922;6.988;2022-07-29T06:51:06;2.42;;;1.40;;
10170;SDS011;5127;50.922;6.988;2022-07-29T06:53:43;3.80;;;1.50;;
10170;SDS011;5127;50.922;6.988;2022-07-29T06:56:11;7.50;;;1.95;;
10170;SDS011;5127;50.922;6.988;2022-07-29T06:58:40;3.15;;;1.63;;
10170;SDS011;5127;50.922;6.988;2022-07-29T07:01:07;3.10;;;1.65;;
10170;SDS011;5127;50.922;6.988;2022-07-29T07:03:35;2.22;;;1.67;;
10170;SDS011;5127;50.922;6.988;2022-07-29T07:06:02;2.38;;;1.58;;
10170;SDS011;5127;50.922;6.988;2022-07-29T07:08:30;4.70;;;1.50;;
10170;SDS011;5127;50.922;6.988;2022-07-29T07:10:57;3.97;;;1.33;;
10170;SDS011;5127;50.922;6.988;2022-07-29T07:13:24;9.15;;;1.92;;
10170;SDS011;5127;50.922;6.988;2022-07-29T07:15:53;2.80;;;1.50;;
10170;SDS011;5127;50.922;6.988;2022-07-29T07:18:20;2.00;;;1.50;;
10170;SDS011;5127;50.922;6.988;2022-07-29T07:20:48;2.90;;;1.52;;
10170;SDS011;5127;50.922;6.988;2022-07-29T07:23:15;6.25;;;1.50;;
10170;SDS011;5127;50.922;6.988;2022-07-29T07:25:42;5.30;;;1.70;;
10170;SDS011;5127;50.922;6.988;2022-07-29T07:28:10;3.17;;;1.45;;
10170;SDS011;5127;50.922;6.988;2022-07-29T07:30:37;2.88;;;1.23;;
10170;SDS011;5127;50.922;6.988;2022-07-29T07:33:07;2.13;;;1.40;;
10170;SDS011;5127;50.922;6.988;2022-07-29T07:35:34;2.53;;;1.50;;
10170;SDS011;5127;50.922;6.988;2022-07-29T07:38:01;4.93;;;1.58;;
10170;SDS011;5127;50.922;6.988;2022-07-29T07:40:29;3.92;;;1.33;;
10170;SDS011;5127;50.922;6.988;2022-07-29T07:42:56;6.30;;;1.90;;
10170;SDS011;5127;50.922;6.988;2022-07-29T07:45:23;2.63;;;1.58;;
10170;SDS011;5127;50.922;6.988;2022-07-29T07:47:51;2.63;;;1.48;;
10170;SDS011;5127;50.922;6.988;2022-07-29T07:50:19;4.68;;;1.65;;
10170;SDS011;5127;50.922;6.988;2022-07-29T07:52:47;2.45;;;1.52;;
10170;SDS011;5127;50.922;6.988;2022-07-29T07:55:16;4.35;;;1.73;;
10170;SDS011;5127;50.922;6.988;2022-07-29T07:57:43;5.35;;;1.95;;
10170;SDS011;5127;50.922;6.988;2022-07-29T08:00:11;18.13;;;3.03;;
10170;SDS011;5127;50.922;6.988;2022-07-29T08:02:39;7.38;;;1.73;;
10170;SDS011;5127;50.922;6.988;2022-07-29T08:05:08;2.50;;;1.58;;
10170;SDS011;5127;50.922;6.988;2022-07-29T08:07:38;5.28;;;1.58;;
10170;SDS011;5127;50.922;6.988;2022-07-29T08:10:06;4.20;;;1.63;;
10170;SDS011;5127;50.922;6.988;2022-07-29T08:12:34;7.70;;;2.30;;
10170;SDS011;5127;50.922;6.988;2022-07-29T08:15:02;5.78;;;2.15;;
10170;SDS011;5127;50.922;6.988;2022-07-29T08:17:30;5.25;;;2.15;;
10170;SDS011;5127;50.922;6.988;2022-07-29T08:19:57;5.47;;;1.95;;
10170;SDS011;5127;50.922;6.988;2022-07-29T08:22:24;4.15;;;2.28;;
10170;SDS011;5127;50.922;6.988;2022-07-29T08:24:53;4.85;;;2.05;;
10170;SDS011;5127;50.922;6.988;2022-07-29T08:27:22;4.00;;;1.60;;
10170;SDS011;5127;50.922;6.988;2022-07-29T08:29:51;4.35;;;1.70;;
10170;SDS011;5127;50.922;6.988;2022-07-29T08:32:21;2.58;;;1.75;;
10170;SDS011;5127;50.922;6.988;2022-07-29T08:34:48;6.57;;;2.40;;
10170;SDS011;5127;50.922;6.988;2022-07-29T08:37:15;4.20;;;1.80;;
10170;SDS011;5127;50.922;6.988;2022-07-29T08:39:43;2.00;;;1.40;;
10170;SDS011;5127;50.922;6.988;2022-07-29T08:42:11;2.85;;;1.33;;
10170;SDS011;5127;50.922;6.988;2022-07-29T08:44:39;3.15;;;1.60;;
10170;SDS011;5127;50.922;6.988;2022-07-29T08:47:06;3.03;;;1.70;;
10170;SDS011;5127;50.922;6.988;2022-07-29T08:49:34;4.65;;;1.58;;
10170;SDS011;5127;50.922;6.988;2022-07-29T08:52:02;3.72;;;1.40;;
10170;SDS011;5127;50.922;6.988;2022-07-29T08:54:29;4.85;;;1.70;;
10170;SDS011;5127;50.922;6.988;2022-07-29T08:56:57;1.77;;;1.50;;
10170;SDS011;5127;50.922;6.988;2022-07-29T08:59:26;2.92;;;1.40;;
10170;SDS011;5127;50.922;6.988;2022-07-29T09:01:54;4.65;;;1.95;;
10170;SDS011;5127;50.922;6.988;2022-07-29T09:04:25;4.25;;;1.73;;
10170;SDS011;5127;50.922;6.988;2022-07-29T09:06:56;4.20;;;1.42;;
10170;SDS011;5127;50.922;6.988;2022-07-29T09:09:27;3.45;;;1.30;;
10170;SDS011;5127;50.922;6.988;2022-07-29T09:11:54;7.63;;;2.00;;
10170;SDS011;5127;50.922;6.988;2022-07-29T09:14:22;4.00;;;2.13;;
10170;SDS011;5127;50.922;6.988;2022-07-29T09:16:52;5.32;;;1.95;;
10170;SDS011;5127;50.922;6.988;2022-07-29T09:19:24;2.78;;;1.73;;
10170;SDS011;5127;50.922;6.988;2022-07-29T09:21:53;6.20;;;2.10;;
10170;SDS011;5127;50.922;6.988;2022-07-29T09:24:24;4.40;;;2.20;;
10170;SDS011;5127;50.922;6.988;2022-07-29T09:26:52;6.53;;;2.80;;
10170;SDS011;5127;50.922;6.988;2022-07-29T09:29:20;4.95;;;2.85;;
10170;SDS011;5127;50.922;6.988;2022-07-29T09:31:54;8.45;;;3.15;;
10170;SDS011;5127;50.922;6.988;2022-07-29T09:34:23;6.65;;;3.55;;
10170;SDS011;5127;50.922;6.988;2022-07-29T09:36:51;4.55;;;3.35;;
10170;SDS011;5127;50.922;6.988;2022-07-29T09:39:26;5.97;;;3.53;;
10170;SDS011;5127;50.922;6.988;2022-07-29T09:41:56;5.60;;;3.15;;
10170;SDS011;5127;50.922;6.988;2022-07-29T09:44:25;3.28;;;2.70;;
10170;SDS011;5127;50.922;6.988;2022-07-29T09:46:58;4.45;;;2.63;;
10170;SDS011;5127;50.922;6.988;2022-07-29T09:49:31;3.97;;;2.72;;
10170;SDS011;5127;50.922;6.988;2022-07-29T09:52:00;7.05;;;2.38;;
10170;SDS011;5127;50.922;6.988;2022-07-29T09:54:30;4.57;;;2.65;;
10170;SDS011;5127;50.922;6.988;2022-07-29T09:57:02;4.53;;;2.10;;
10170;SDS011;5127;50.922;6.988;2022-07-29T09:59:31;3.45;;;2.30;;
10170;SDS011;5127;50.922;6.988;2022-07-29T10:02:00;5.40;;;2.03;;
10170;SDS011;5127;50.922;6.988;2022-07-29T10:04:38;5.03;;;2.38;;
10170;SDS011;5127;50.922;6.988;2022-07-29T10:07:06;5.05;;;2.13;;
10170;SDS011;5127;50.922;6.988;2022-07-29T10:09:34;4.55;;;2.15;;
10170;SDS011;5127;50.922;6.988;2022-07-29T10:12:08;2.58;;;1.75;;
10170;SDS011;5127;50.922;6.988;2022-07-29T10:14:39;3.20;;;2.05;;
10170;SDS011;5127;50.922;6.988;2022-07-29T10:17:09;4.68;;;2.28;;
10170;SDS011;5127;50.922;6.988;2022-07-29T10:19:37;6.32;;;2.03;;
10170;SDS011;5127;50.922;6.988;2022-07-29T10:22:06;3.05;;;2.05;;
10170;SDS011;5127;50.922;6.988;2022-07-29T10:24:35;3.22;;;2.22;;
10170;SDS011;5127;50.922;6.988;2022-07-29T10:27:04;4.00;;;2.13;;
10170;SDS011;5127;50.922;6.988;2022-07-29T10:29:32;4.07;;;2.20;;
10170;SDS011;5127;50.922;6.988;2022-07-29T10:34:51;3.65;;;2.20;;
10170;SDS011;5127;50.922;6.988;2022-07-29T10:37:35;3.63;;;2.10;;
10170;SDS011;5127;50.922;6.988;2022-07-29T10:40:15;5.40;;;2.20;;
10170;SDS011;5127;50.922;6.988;2022-07-29T10:43:07;2.63;;;1.63;;
10170;SDS011;5127;50.922;6.988;2022-07-29T10:45:44;2.70;;;1.77;;
10170;SDS011;5127;50.922;6.988;2022-07-29T10:48:15;2.55;;;1.58;;
10170;SDS011;5127;50.922;6.988;2022-07-29T10:50:51;4.35;;;2.00;;
10170;SDS011;5127;50.922;6.988;2022-07-29T10:53:20;3.83;;;2.10;;
10170;SDS011;5127;50.922;6.988;2022-07-29T10:55:49;2.90;;;1.70;;
10170;SDS011;5127;50.922;6.988;2022-07-29T10:58:18;3.85;;;1.73;;
10170;SDS011;5127;50.922;6.988;2022-07-29T11:00:51;2.72;;;1.90;;
10170;SDS011;5127;50.922;6.988;2022-07-29T11:06:12;2.25;;;1.90;;
10170;SDS011;5127;50.922;6.988;2022-07-29T11:08:40;4.20;;;1.85;;
10170;SDS011;5127;50.922;6.988;2022-07-29T11:14:04;4.88;;;1.95;;
10170;SDS011;5127;50.922;6.988;2022-07-29T11:19:30;3.95;;;1.88;;
10170;SDS011;5127;50.922;6.988;2022-07-29T11:21:57;2.85;;;1.83;;
10170;SDS011;5127;50.922;6.988;2022-07-29T11:24:26;3.63;;;1.83;;
10170;SDS011;5127;50.922;6.988;2022-07-29T11:29:52;2.45;;;1.70;;
10170;SDS011;5127;50.922;6.988;2022-07-29T11:32:21;4.35;;;2.00;;
10170;SDS011;5127;50.922;6.988;2022-07-29T11:35:10;3.85;;;1.50;;
10170;SDS011;5127;50.922;6.988;2022-07-29T11:37:38;5.30;;;2.00;;
10170;SDS011;5127;50.922;6.988;2022-07-29T11:42:51;5.40;;;1.85;;
10170;SDS011;5127;50.922;6.988;2022-07-29T11:45:23;1.52;;;1.42;;
10170;SDS011;5127;50.922;6.988;2022-07-29T11:47:54;2.53;;;1.67;;
10170;SDS011;5127;50.922;6.988;2022-07-29T11:50:33;2.17;;;1.33;;
10170;SDS011;5127;50.922;6.988;2022-07-29T11:53:02;1.95;;;1.45;;
10170;SDS011;5127;50.922;6.988;2022-07-29T11:55:36;1.73;;;1.48;;
10170;SDS011;5127;50.922;6.988;2022-07-29T11:58:04;2.63;;;1.50;;
10170;SDS011;5127;50.922;6.988;2022-07-29T12:00:33;3.92;;;1.88;;
10170;SDS011;5127;50.922;6.988;2022-07-29T12:03:04;2.80;;;1.60;;
10170;SDS011;5127;50.922;6.988;2022-07-29T12:05:35;6.75;;;1.65;;
10170;SDS011;5127;50.922;6.988;2022-07-29T12:08:08;2.75;;;1.30;;
10170;SDS011;5127;50.922;6.988;2022-07-29T12:10:41;4.13;;;1.50;;
10170;SDS011;5127;50.922;6.988;2022-07-29T12:13:09;3.25;;;2.83;;
10170;SDS011;5127;50.922;6.988;2022-07-29T12:15:36;3.60;;;2.13;;
10170;SDS011;5127;50.922;6.988;2022-07-29T12:18:11;2.70;;;1.63;;
10170;SDS011;5127;50.922;6.988;2022-07-29T12:20:41;2.45;;;1.52;;
10170;SDS011;5127;50.922;6.988;2022-07-29T12:23:10;6.03;;;1.35;;
10170;SDS011;5127;50.922;6.988;2022-07-29T12:25:39;1.35;;;1.25;;
10170;SDS011;5127;50.922;6.988;2022-07-29T12:28:08;2.35;;;1.48;;
10170;SDS011;5127;50.922;6.988;2022-07-29T12:30:39;3.40;;;1.65;;
10170;SDS011;5127;50.922;6.988;2022-07-29T12:33:11;1.80;;;1.38;;
10170;SDS011;5127;50.922;6.988;2022-07-29T12:35:42;2.97;;;1.42;;
10170;SDS011;5127;50.922;6.988;2022-07-29T12:38:12;2.08;;;1.58;;
10170;SDS011;5127;50.922;6.988;2022-07-29T12:40:40;3.60;;;2.60;;
10170;SDS011;5127;50.922;6.988;2022-07-29T12:43:08;5.40;;;1.48;;
10170;SDS011;5127;50.922;6.988;2022-07-29T12:45:36;2.92;;;1.40;;
10170;SDS011;5127;50.922;6.988;2022-07-29T12:48:05;1.40;;;1.30;;
10170;SDS011;5127;50.922;6.988;2022-07-29T12:50:34;2.13;;;1.30;;
10170;SDS011;5127;50.922;6.988;2022-07-29T12:53:10;1.63;;;1.25;;
10170;SDS011;5127;50.922;6.988;2022-07-29T12:55:40;1.80;;;1.13;;
10170;SDS011;5127;50.922;6.988;2022-07-29T12:58:08;1.80;;;1.52;;
10170;SDS011;5127;50.922;6.988;2022-07-29T13:00:36;1.60;;;1.20;;
10170;SDS011;5127;50.922;6.988;2022-07-29T13:03:03;2.88;;;1.25;;
10170;SDS011;5127;50.922;6.988;2022-07-29T13:05:41;1.35;;;1.23;;
10170;SDS011;5127;50.922;6.988;2022-07-29T13:08:12;1.60;;;1.25;;
10170;SDS011;5127;50.922;6.988;2022-07-29T13:10:40;2.00;;;1.33;;
10170;SDS011;5127;50.922;6.988;2022-07-29T13:13:08;1.45;;;1.20;;
10170;SDS011;5127;50.922;6.988;2022-07-29T13:15:37;2.28;;;1.40;;
10170;SDS011;5127;50.922;6.988;2022-07-29T13:18:26;2.63;;;1.27;;
10170;SDS011;5127;50.922;6.988;2022-07-29T13:20:53;2.03;;;1.35;;
10170;SDS011;5127;50.922;6.988;2022-07-29T13:23:22;1.85;;;1.35;;
10170;SDS011;5127;50.922;6.988;2022-07-29T13:25:50;1.73;;;1.30;;
10170;SDS011;5127;50.922;6.988;2022-07-29T13:28:17;2.35;;;1.50;;
10170;SDS011;5127;50.922;6.988;2022-07-29T13:30:47;1.98;;;1.48;;
10170;SDS011;5127;50.922;6.988;2022-07-29T13:33:14;2.42;;;1.38;;
10170;SDS011;5127;50.922;6.988;2022-07-29T13:35:41;2.80;;;1.27;;
10170;SDS011;5127;50.922;6.988;2022-07-29T13:38:08;1.55;;;1.05;;
10170;SDS011;5127;50.922;6.988;2022-07-29T13:40:37;1.90;;;1.25;;
10170;SDS011;5127;50.922;6.988;2022-07-29T13:43:04;2.45;;;1.40;;
10170;SDS011;5127;50.922;6.988;2022-07-29T13:45:35;1.38;;;1.13;;
10170;SDS011;5127;50.922;6.988;2022-07-29T13:48:02;2.38;;;1.40;;
10170;SDS011;5127;50.922;6.988;2022-07-29T13:50:30;2.13;;;1.67;;
10170;SDS011;5127;50.922;6.988;2022-07-29T13:52:58;5.15;;;1.92;;
10170;SDS011;5127;50.922;6.988;2022-07-29T13:55:25;3.70;;;2.20;;
10170;SDS011;5127;50.922;6.988;2022-07-29T13:57:54;3.25;;;1.90;;
10170;SDS011;5127;50.922;6.988;2022-07-29T14:00:21;2.10;;;1.90;;
10170;SDS011;5127;50.922;6.988;2022-07-29T14:02:49;4.65;;;2.08;;
10170;SDS011;5127;50.922;6.988;2022-07-29T14:05:16;7.97;;;2.45;;
10170;SDS011;5127;50.922;6.988;2022-07-29T14:07:43;3.42;;;2.15;;
10170;SDS011;5127;50.922;6.988;2022-07-29T14:10:10;2.50;;;1.90;;
10170;SDS011;5127;50.922;6.988;2022-07-29T14:12:38;3.38;;;2.20;;
10170;SDS011;5127;50.922;6.988;2022-07-29T14:15:08;4.35;;;2.28;;
10170;SDS011;5127;50.922;6.988;2022-07-29T14:17:36;4.00;;;2.10;;
10170;SDS011;5127;50.922;6.988;2022-07-29T14:20:04;4.70;;;2.00;;
10170;SDS011;5127;50.922;6.988;2022-07-29T14:22:32;3.65;;;2.00;;
10170;SDS011;5127;50.922;6.988;2022-07-29T14:24:59;2.38;;;1.90;;
10170;SDS011;5127;50.922;6.988;2022-07-29T14:27:27;4.95;;;1.90;;
10170;SDS011;5127;50.922;6.988;2022-07-29T14:29:54;2.92;;;1.92;;
10170;SDS011;5127;50.922;6.988;2022-07-29T14:32:22;2.85;;;1.92;;
10170;SDS011;5127;50.922;6.988;2022-07-29T14:34:49;3.65;;;2.22;;
10170;SDS011;5127;50.922;6.988;2022-07-29T14:37:17;5.07;;;2.45;;
10170;SDS011;5127;50.922;6.988;2022-07-29T14:39:44;5.32;;;2.50;;
10170;SDS011;5127;50.922;6.988;2022-07-29T14:42:12;4.18;;;2.15;;
10170;SDS011;5127;50.922;6.988;2022-07-29T14:44:39;3.13;;;2.30;;
10170;SDS011;5127;50.922;6.988;2022-07-29T14:47:07;4.63;;;2.55;;
10170;SDS011;5127;50.922;6.988;2022-07-29T14:49:35;3.95;;;2.17;;
10170;SDS011;5127;50.922;6.988;2022-07-29T14:52:03;2.30;;;2.10;;
10170;SDS011;5127;50.922;6.988;2022-07-29T14:54:31;3.67;;;2.20;;
10170;SDS011;5127;50.922;6.988;2022-07-29T14:56:58;3.05;;;2.22;;
10170;SDS011;5127;50.922;6.988;2022-07-29T14:59:25;3.38;;;2.30;;
10170;SDS011;5127;50.922;6.988;2022-07-29T15:01:53;3.60;;;2.10;;
10170;SDS011;5127;50.922;6.988;2022-07-29T15:04:20;2.72;;;1.92;;
10170;SDS011;5127;50.922;6.988;2022-07-29T15:06:49;2.42;;;2.00;;
10170;SDS011;5127;50.922;6.988;2022-07-29T15:09:17;3.85;;;1.70;;
10170;SDS011;5127;50.922;6.988;2022-07-29T15:11:44;4.28;;;2.53;;
10170;SDS011;5127;50.922;6.988;2022-07-29T15:14:11;3.95;;;2.15;;
10170;SDS011;5127;50.922;6.988;2022-07-29T15:16:39;3.42;;;2.70;;
10170;SDS011;5127;50.922;6.988;2022-07-29T15:19:07;2.60;;;2.08;;
10170;SDS011;5127;50.922;6.988;2022-07-29T15:21:34;3.30;;;2.47;;
10170;SDS011;5127;50.922;6.988;2022-07-29T15:24:04;3.30;;;1.90;;
10170;SDS011;5127;50.922;6.988;2022-07-29T15:26:32;2.28;;;1.60;;
10170;SDS011;5127;50.922;6.988;2022-07-29T15:29:00;2.70;;;1.60;;
10170;SDS011;5127;50.922;6.988;2022-07-29T15:31:27;2.13;;;1.58;;
10170;SDS011;5127;50.922;6.988;2022-07-29T15:33:54;2.05;;;1.75;;